Terminal Aerodrome Forecast
Issued by NWS Memphis, TN

Current Version | Previous Version | Text Only | Print | Product List | Glossary On
Versions: 1 2 3 4 5 6 7 8 9 10 11 12 13 14 15 16 17 18 19 20 21 22 23 24 25 26 27 28 29 30 31 32 33
586
FTUS44 KMEG 232038 AAC
TAFMEM
TAF AMD
KMEM 232038Z 2321/2418 25012KT P6SM VCSH BKN020
     FM232300 24008KT P6SM -SHRA BKN035
      TEMPO 2323/2402 34015G25KT 4SM TSRA BKN025CB
     FM240200 VRB04KT P6SM VCSH SCT025 BKN050
     FM240600 02005KT P6SM BKN050
     FM241300 03010KT P6SM SCT050=

USA.gov is the U.S. government's official web portal to all federal, state and local government web resources and services.